Time;durP1;ratioP1;P1;durP2;ratioP2;P2;SDS_P1;SDS_P2;PMS_P1;PMS_P2;Temp;Humidity;BMP_temperature;BMP_pressure;BME280_temperature;BME280_humidity;BME280_pressure;Samples;Min_cycle;Max_cycle;Signal;HPM_P1;HPM_P2
2023/03/26 04:10:55;;;;;;;0.10;0.10;;;;;;;;;;4962024;28;20413;-91
2023/03/26 04:13:21;;;;;;;0.10;0.10;;;;;;;;;;4966313;28;20015;-91
2023/03/26 04:15:47;;;;;;;0.10;0.10;;;;;;;;;;4951646;28;20019;-92
2023/03/26 04:18:13;;;;;;;0.10;0.10;;;;;;;;;;4944149;28;20094;-91
2023/03/26 05:31:55;;;;;;;0.00;0.00;;;;;;;;;;4960591;28;20043;-91
2023/03/26 05:34:25;;;;;;;0.00;0.00;;;;;;;;;;4949105;28;20032;-91
2023/03/26 05:36:51;;;;;;;0.10;0.10;;;;;;;;;;4944609;28;20062;-90
2023/03/26 05:39:17;;;;;;;0.10;0.10;;;;;;;;;;4943851;28;20398;-92
2023/03/26 05:41:43;;;;;;;0.08;0.08;;;;;;;;;;4945192;28;20054;-92
2023/03/26 09:47:12;;;;;;;0.00;0.00;;;11.90;99.90;;;;;;4986864;28;20047;-91
2023/03/26 09:49:38;;;;;;;0.00;0.00;;;;;;;;;;4984896;28;20460;-91
2023/03/26 09:52:36;;;;;;;0.00;0.00;;;11.90;99.90;;;;;;4987761;28;20091;-90
2023/03/26 09:55:27;;;;;;;0.00;0.00;;;12.00;99.90;;;;;;4959246;28;20139;-91
2023/03/26 09:58:08;;;;;;;0.00;0.00;;;12.00;99.90;;;;;;4987862;28;20035;-91
2023/03/26 10:00:55;;;;;;;0.00;0.00;;;12.20;99.90;;;;;;4988061;28;20031;-92
2023/03/26 10:03:47;;;;;;;0.00;0.00;;;12.20;99.90;;;;;;4984996;28;20031;-91
2023/03/26 10:06:28;;;;;;;0.00;0.00;;;12.20;99.90;;;;;;4986069;28;20094;-90
2023/03/26 10:09:06;;;;;;;0.00;0.00;;;12.10;99.90;;;;;;4986559;28;20034;-91
2023/03/26 10:12:22;;;;;;;0.00;0.00;;;12.10;99.90;;;;;;4986831;28;20054;-92
2023/03/26 10:15:09;;;;;;;0.00;0.00;;;12.10;99.90;;;;;;4992697;28;20031;-91
2023/03/26 10:18:20;;;;;;;0.00;0.00;;;12.00;99.90;;;;;;4993524;28;20059;-93
2023/03/26 10:21:01;;;;;;;0.00;0.00;;;11.90;99.90;;;;;;4988902;28;20038;-92
2023/03/26 10:24:07;;;;;;;0.08;0.08;;;12.00;99.90;;;;;;4987757;28;20086;-91
2023/03/26 10:26:33;;;;;;;0.00;0.00;;;;;;;;;;4988767;28;20031;-89
2023/03/26 10:29:00;;;;;;;0.00;0.00;;;;;;;;;;4993552;28;20039;-91
2023/03/26 10:31:33;;;;;;;0.00;0.00;;;12.20;99.90;;;;;;4991182;28;20038;-90
2023/03/26 10:34:06;;;;;;;0.00;0.00;;;12.20;99.90;;;;;;4984308;28;20019;-87
2023/03/26 10:36:43;;;;;;;0.00;0.00;;;12.50;99.90;;;;;;4986740;28;20041;-91
2023/03/26 10:39:37;;;;;;;0.00;0.00;;;12.60;99.90;;;;;;4985420;28;20035;-91
2023/03/26 10:42:27;;;;;;;0.00;0.00;;;12.70;99.90;;;;;;4990751;28;20041;-91
2023/03/26 10:44:53;;;;;;;0.00;0.00;;;;;;;;;;4993992;28;20107;-92
2023/03/26 10:47:45;;;;;;;0.10;0.10;;;12.80;99.90;;;;;;4989936;28;20030;-91
2023/03/26 10:50:24;;;;;;;0.00;0.00;;;12.80;99.90;;;;;;4980955;28;20038;-92
2023/03/26 10:53:31;;;;;;;0.00;0.00;;;12.80;99.90;;;;;;4983559;28;20103;-91
2023/03/26 10:56:16;;;;;;;0.00;0.00;;;13.00;99.90;;;;;;4988920;28;20070;-92
2023/03/26 10:58:42;;;;;;;0.00;0.00;;;;;;;;;;4992398;28;20085;-92
2023/03/26 11:01:19;;;;;;;0.00;0.00;;;12.90;99.90;;;;;;4990433;28;20031;-92
2023/03/26 11:06:29;;;;;;;0.00;0.00;;;13.00;99.90;;;;;;4990100;28;20046;-92
2023/03/26 11:09:17;;;;;;;0.00;0.00;;;13.10;99.90;;;;;;4984523;28;20117;-91
2023/03/26 11:12:08;;;;;;;0.00;0.00;;;13.30;99.90;;;;;;4988783;28;20069;-91
2023/03/26 11:14:40;;;;;;;0.00;0.00;;;13.30;99.90;;;;;;4969346;28;20056;-91
2023/03/26 11:17:47;;;;;;;0.00;0.00;;;13.00;99.90;;;;;;4970166;28;20046;-91
2023/03/26 11:20:37;;;;;;;0.00;0.00;;;12.80;99.90;;;;;;4967463;28;20035;-93
2023/03/26 11:23:24;;;;;;;0.00;0.00;;;12.80;99.90;;;;;;4969678;28;20138;-91
2023/03/26 11:26:23;;;;;;;0.00;0.00;;;12.70;99.90;;;;;;4965679;28;20026;-92
2023/03/26 11:29:17;;;;;;;0.00;0.00;;;12.60;99.90;;;;;;4967477;28;20030;-92
2023/03/26 11:31:53;;;;;;;0.00;0.00;;;12.40;99.90;;;;;;4958579;28;20032;-93
2023/03/26 11:34:24;;;;;;;0.00;0.00;;;12.30;99.90;;;;;;4967112;28;20156;-90
2023/03/26 11:36:55;;;;;;;0.00;0.00;;;12.30;99.90;;;;;;4955879;28;20031;-91
2023/03/26 11:39:25;;;;;;;0.00;0.00;;;12.20;99.90;;;;;;4954282;29;20056;-92
2023/03/26 11:42:13;;;;;;;0.00;0.00;;;12.20;99.90;;;;;;4951765;28;20041;-93
2023/03/26 11:45:16;;;;;;;0.00;0.00;;;12.10;99.90;;;;;;4962419;28;20035;-91
2023/03/26 11:47:50;;;;;;;0.00;0.00;;;12.10;99.90;;;;;;4967307;28;20083;-94
2023/03/26 11:50:22;;;;;;;0.00;0.00;;;12.00;99.90;;;;;;4958676;29;20031;-92
2023/03/26 11:52:49;;;;;;;0.00;0.00;;;;;;;;;;4956771;28;20058;-93
2023/03/26 11:55:15;;;;;;;0.00;0.00;;;;;;;;;;4971657;28;20042;-93
2023/03/26 11:58:21;;;;;;;0.00;0.00;;;11.90;99.90;;;;;;4970405;28;20028;-92
2023/03/26 12:04:34;;;;;;;0.10;0.10;;;11.70;99.90;;;;;;4971119;28;20031;-92
2023/03/26 12:07:22;;;;;;;0.00;0.00;;;11.70;99.90;;;;;;4972765;28;20043;-93
2023/03/26 12:09:52;;;;;;;0.00;0.00;;;11.80;99.90;;;;;;4971417;28;20035;-92
2023/03/26 12:12:19;;;;;;;0.00;0.00;;;;;;;;;;4970828;28;20031;-92
2023/03/26 12:14:45;;;;;;;0.00;0.00;;;;;;;;;;4970902;28;20099;-93
2023/03/26 12:17:14;;;;;;;0.00;0.00;;;11.80;99.90;;;;;;4973297;28;20074;-92
2023/03/26 12:19:56;;;;;;;0.00;0.00;;;11.90;99.90;;;;;;4988720;28;20035;-93
2023/03/26 12:22:59;;;;;;;0.00;0.00;;;11.80;99.90;;;;;;4971982;28;20023;-92
2023/03/26 12:26:11;;;;;;;0.00;0.00;;;11.80;99.90;;;;;;4969627;28;20085;-93
2023/03/26 12:28:36;;;;;;;0.00;0.00;;;;;;;;;;4965342;28;20035;-92
2023/03/26 12:31:04;;;;;;;0.00;0.00;;;11.90;99.90;;;;;;4967808;28;20074;-93
2023/03/26 12:33:34;;;;;;;0.00;0.00;;;11.80;99.90;;;;;;4967341;28;20023;-92
2023/03/26 12:36:23;;;;;;;0.00;0.00;;;11.70;99.90;;;;;;4966493;28;20039;-93
2023/03/26 12:38:49;;;;;;;0.00;0.00;;;;;;;;;;4969284;28;20125;-92
2023/03/26 12:42:21;;;;;;;0.00;0.00;;;11.60;99.90;;;;;;4953578;29;20513;-92
2023/03/26 12:45:16;;;;;;;0.00;0.00;;;11.10;99.90;;;;;;4965440;29;20043;-92
2023/03/26 12:47:42;;;;;;;0.00;0.00;;;;;;;;;;4960398;28;20035;-92
2023/03/26 12:50:13;;;;;;;0.00;0.00;;;11.60;99.90;;;;;;4967559;28;20102;-92
2023/03/26 12:53:16;;;;;;;0.00;0.00;;;11.70;99.90;;;;;;4980509;28;20031;-92
2023/03/26 12:55:52;;;;;;;0.00;0.00;;;11.80;99.90;;;;;;4983922;28;20042;-93
2023/03/26 12:59:02;;;;;;;0.00;0.00;;;11.90;99.90;;;;;;4985104;28;20046;-91
2023/03/26 13:01:34;;;;;;;;;;;12.00;99.90;;;;;;4964700;28;20071;-90
2023/03/26 13:04:28;;;;;;;0.00;0.00;;;11.80;99.90;;;;;;4985075;28;19910;-92
2023/03/26 13:08:11;;;;;;;0.00;0.00;;;11.80;99.90;;;;;;4969602;28;20051;-92
2023/03/26 13:11:25;;;;;;;0.00;0.00;;;11.70;99.90;;;;;;4965908;29;20070;-92
2023/03/26 13:14:14;;;;;;;;;;;11.90;99.90;;;;;;4966447;28;20023;-93
2023/03/26 13:20:43;;;;;;;0.00;0.00;;;11.40;99.90;;;;;;4970437;29;20043;-93
2023/03/26 13:30:34;;;;;;;0.00;0.00;;;11.10;99.90;;;;;;4970718;28;20030;-93
2023/03/26 13:33:56;;;;;;;0.00;0.00;;;11.00;99.90;;;;;;4986021;28;20035;-93
2023/03/26 13:37:17;;;;;;;0.00;0.00;;;11.00;99.90;;;;;;4986431;28;20497;-92
2023/03/26 13:44:11;;;;;;;0.10;0.10;;;10.90;99.90;;;;;;4969447;28;20039;-95
2023/03/26 13:47:18;;;;;;;0.10;0.10;;;10.80;99.90;;;;;;4960920;28;20035;-92
2023/03/26 13:54:09;;;;;;;0.00;0.00;;;10.60;99.90;;;;;;4969215;29;20031;-92
